North Salt Lake
Center St & Main St, North Salt Lake
Last Weather Update:05/15/2012 1:00:00 AM
Date
ETo
ETc
Rain
Irrigation
Req
Temp
Max
Temp
Min
Temp
Avg
Avg RH
Avg Wind
Avg Solar
inches
inches
incehs
inches
F
F
F
%
%
watts/m2
04/01/2012 0.07" 0.00" 0.11" -0.09" 66.4° 34.8° 44.5° 40.3% 7.1 MPH 83.4w/m2
04/02/2012 0.13" 0.01" 0.00" 0.01" 52.7° 28.4° 41.2° 61.0% 5.3 MPH 275.3w/m2
04/03/2012 0.14" 0.01" 0.00" 0.01" 58.2° 37.0° 47.6° 57.7% 3.2 MPH 269.1w/m2
04/04/2012 0.17" 0.01" 0.00" 0.01" 70.8° 42.9° 56.0° 55.2% 4.5 MPH 234.4w/m2
04/05/2012 0.10" 0.01" 0.00" 0.01" 50.2° 35.2° 44.1° 53.7% 3.1 MPH 185.0w/m2
04/06/2012 0.09" 0.01" 0.30" -0.23" 44.9° 29.9° 36.5° 60.3% 4.7 MPH 194.1w/m2
04/07/2012 0.13" 0.02" 0.00" 0.02" 57.9° 26.6° 42.9° 48.4% 2.4 MPH 270.9w/m2
04/08/2012 0.17" 0.03" 0.00" 0.03" 69.3° 36.4° 53.0° 32.8% 3.2 MPH 285.4w/m2
04/09/2012 0.18" 0.03" 0.00" 0.03" 74.2° 43.7° 59.0° 33.9% 3.1 MPH 273.4w/m2
04/10/2012 0.19" 0.04" 0.00" 0.04" 79.5° 48.4° 64.7° 15.1% 4.4 MPH 226.6w/m2
04/11/2012 0.20" 0.04" 0.35" -0.24" 75.3° 44.0° 60.8° 66.6% 7.0 MPH 199.6w/m2
04/12/2012 0.04" 0.01" 0.88" -0.69" 49.0° 35.5° 43.0° 77.2% 4.2 MPH 62.9w/m2
04/13/2012 0.15" 0.04" 0.04" 0.01" 55.9° 36.2° 47.0° 72.6% 4.9 MPH 270.2w/m2
04/14/2012 0.08" 0.02" 0.15" -0.10" 54.0° 38.4° 44.7° 77.6% 3.6 MPH 143.8w/m2
04/15/2012 0.15" 0.04" 0.00" 0.04" 55.7° 38.2° 48.5° 30.9% 3.8 MPH 264.3w/m2
04/17/2012 0.12" 0.04" 0.40" -0.28" 61.7° 43.3° 53.6° 47.8% 5.1 MPH 209.9w/m2
04/18/2012 0.07" 0.02" 0.01" 0.02" 58.9° 46.2° 52.3° 65.3% 3.4 MPH 100.7w/m2
04/19/2012 0.14" 0.05" 0.05" 0.01" 61.3° 41.7° 51.9° 67.9% 2.8 MPH 252.5w/m2
04/20/2012 0.16" 0.06" 0.00" 0.06" 69.2° 43.0° 57.8° 50.6% 2.4 MPH 269.6w/m2
04/21/2012 0.20" 0.09" 0.00" 0.09" 78.2° 47.9° 64.2° 40.4% 2.7 MPH 310.2w/m2
04/22/2012 0.20" 0.09" 0.00" 0.09" 83.5° 50.6° 67.9° 38.5% 2.7 MPH 284.8w/m2
04/23/2012 0.20" 0.09" 0.00" 0.09" 86.3° 56.4° 72.4° 15.1% 3.3 MPH 243.4w/m2
04/24/2012 0.24" 0.12" 0.00" 0.12" 82.8° 64.6° 76.1° 45.8% 4.9 MPH 258.2w/m2
04/25/2012 0.18" 0.09" 0.00" 0.09" 76.6° 59.2° 67.9° 34.8% 5.5 MPH 181.6w/m2
04/26/2012 0.19" 0.10" 0.67" -0.44" 77.0° 39.5° 64.3° 92.3% 7.1 MPH 159.4w/m2
04/27/2012 0.11" 0.06" 0.08" 0.00" 51.0° 38.0° 44.4° 44.9% 5.2 MPH 192.0w/m2
04/28/2012 0.15" 0.08" 0.00" 0.08" 52.4° 31.8° 44.5° 43.5% 2.9 MPH 319.3w/m2
04/29/2012 0.16" 0.09" 0.00" 0.09" 59.8° 41.3° 50.9° 57.0% 2.9 MPH 312.5w/m2
04/30/2012 0.18" 0.11" 0.00" 0.11" 73.7° 42.7° 60.4° 70.6% 4.6 MPH 226.1w/m2
Totals: 4.29" 1.42" 3.04" -1.01" 86.3° 26.6° 53.9° 51.6% 4.1 MPH 226.2w/m2